createdAt,value
2019-03-10T00:01:31.907Z,85.50
2019-03-10T00:04:03.622Z,88.50
2019-03-10T00:06:33.623Z,87.00
2019-03-10T00:09:03.808Z,85.40
2019-03-10T00:11:33.654Z,89.10
2019-03-10T00:14:03.426Z,85.00
2019-03-10T00:16:33.213Z,85.20
2019-03-10T00:19:04.048Z,83.90
2019-03-10T00:21:34.011Z,81.60
2019-03-10T00:24:03.886Z,91.40
2019-03-10T00:26:33.790Z,82.70
2019-03-10T00:29:03.638Z,88.30
2019-03-10T00:31:33.533Z,79.10
2019-03-10T00:34:03.864Z,76.10
2019-03-10T00:36:33.748Z,74.20
2019-03-10T00:39:13.070Z,77.70
2019-03-10T00:42:19.801Z,78.50
2019-03-10T00:45:41.534Z,79.50
2019-03-10T00:48:59.590Z,80.70
2019-03-10T00:51:55.939Z,82.20
2019-03-10T00:54:25.837Z,83.30
2019-03-10T00:56:55.606Z,80.20
2019-03-10T00:59:25.449Z,79.90
2019-03-10T01:01:55.317Z,80.60
2019-03-10T01:04:25.103Z,82.00
2019-03-10T01:06:55.137Z,76.70
2019-03-10T01:09:24.953Z,80.60
2019-03-10T01:11:57.671Z,81.20
2019-03-10T01:14:27.405Z,74.80
2019-03-10T01:16:59.118Z,77.10
2019-03-10T01:19:29.473Z,78.30
2019-03-10T01:22:00.468Z,76.10
2019-03-10T01:24:30.317Z,75.50
2019-03-10T01:27:00.088Z,75.60
2019-03-10T01:29:29.843Z,77.40
2019-03-10T01:32:19.591Z,82.70
2019-03-10T01:35:22.492Z,84.10
2019-03-10T01:37:52.221Z,82.30
2019-03-10T01:40:22.003Z,81.30
2019-03-10T01:42:51.866Z,78.40
2019-03-10T01:45:21.694Z,80.10
2019-03-10T01:47:51.469Z,81.40
2019-03-10T01:50:21.201Z,80.80
2019-03-10T01:52:50.918Z,82.30
2019-03-10T01:55:20.607Z,81.30
2019-03-10T01:57:50.270Z,82.90
2019-03-10T02:00:20.029Z,89.20
2019-03-10T02:02:49.723Z,90.20
2019-03-10T02:05:19.498Z,88.80
2019-03-10T02:07:49.287Z,90.10
2019-03-10T02:10:19.012Z,90.10
2019-03-10T02:12:48.748Z,89.30
2019-03-10T02:15:18.571Z,88.60
2019-03-10T02:17:48.251Z,88.50
2019-03-10T02:20:18.735Z,90.50
2019-03-10T02:22:48.444Z,90.10
2019-03-10T02:25:18.227Z,90.10
2019-03-10T02:27:47.888Z,90.20
2019-03-10T02:30:19.154Z,90.00
2019-03-10T02:32:48.885Z,91.90
2019-03-10T02:35:18.625Z,91.70
2019-03-10T02:37:48.402Z,93.70
2019-03-10T02:40:18.179Z,94.50
2019-03-10T02:42:47.925Z,94.50
2019-03-10T02:45:17.663Z,94.20
2019-03-10T02:47:47.450Z,94.40
2019-03-10T02:50:17.324Z,94.10
2019-03-10T02:52:47.019Z,94.80
2019-03-10T02:55:16.951Z,95.00
2019-03-10T02:57:46.630Z,95.40
2019-03-10T03:00:16.651Z,95.60
2019-03-10T03:02:46.578Z,96.60
2019-03-10T03:05:16.273Z,97.50
2019-03-10T03:07:46.048Z,98.30
2019-03-10T03:10:16.052Z,98.70
2019-03-10T03:12:45.779Z,99.40
2019-03-10T03:15:15.499Z,99.90
2019-03-10T03:17:45.303Z,99.90
2019-03-10T03:20:15.002Z,99.90
2019-03-10T03:22:44.814Z,99.90
2019-03-10T03:25:14.713Z,99.90
2019-03-10T03:27:44.437Z,99.90
2019-03-10T03:30:15.466Z,99.90
2019-03-10T03:32:45.305Z,99.90
2019-03-10T03:35:41.121Z,99.90
2019-03-10T03:38:10.897Z,99.90
2019-03-10T03:40:42.525Z,99.90
2019-03-10T03:43:12.497Z,99.90
2019-03-10T03:45:42.190Z,99.90
2019-03-10T03:48:11.900Z,99.90
2019-03-10T03:50:41.600Z,99.90
2019-03-10T03:53:11.311Z,99.90
2019-03-10T03:55:41.220Z,99.90
2019-03-10T03:58:11.073Z,99.90
2019-03-10T04:00:42.007Z,99.90
2019-03-10T04:03:11.717Z,99.90
2019-03-10T04:05:41.383Z,99.40
2019-03-10T04:08:11.104Z,99.40
2019-03-10T04:10:40.893Z,98.60
2019-03-10T04:13:10.902Z,98.30
2019-03-10T04:15:40.648Z,98.40
2019-03-10T04:18:10.467Z,96.90
2019-03-10T04:20:40.162Z,97.50
2019-03-10T04:23:09.875Z,96.80
2019-03-10T04:25:39.594Z,95.60
2019-03-10T04:28:09.331Z,95.60
2019-03-10T04:30:39.022Z,94.70
2019-03-10T04:33:08.831Z,94.10
2019-03-10T04:35:38.580Z,93.60
2019-03-10T04:38:08.349Z,92.90
2019-03-10T04:40:38.069Z,92.90
2019-03-10T04:43:07.923Z,92.70
2019-03-10T04:45:37.595Z,92.90
2019-03-10T04:48:07.411Z,92.70
2019-03-10T04:50:37.121Z,94.00
2019-03-10T04:53:06.854Z,93.60
2019-03-10T04:55:50.862Z,93.40
2019-03-10T04:58:21.146Z,93.00
2019-03-10T05:00:53.099Z,92.80
2019-03-10T05:03:22.836Z,92.90
2019-03-10T05:05:52.545Z,92.20
2019-03-10T05:08:22.360Z,91.50
2019-03-10T05:10:52.181Z,90.40
2019-03-10T05:13:21.913Z,90.50
2019-03-10T05:15:51.808Z,89.40
2019-03-10T05:18:21.527Z,89.40
2019-03-10T05:20:51.208Z,88.00
2019-03-10T05:23:31.915Z,86.30
2019-03-10T05:26:01.867Z,84.60
2019-03-10T05:28:32.580Z,83.90
2019-03-10T05:31:02.262Z,83.20
2019-03-10T05:33:32.079Z,83.30
2019-03-10T05:36:01.776Z,83.00
2019-03-10T05:38:31.641Z,81.80
2019-03-10T05:41:01.362Z,80.50
2019-03-10T05:43:32.078Z,80.70
2019-03-10T05:46:01.776Z,80.40
2019-03-10T05:48:31.494Z,78.00
2019-03-10T05:51:01.263Z,79.20
2019-03-10T05:53:31.004Z,78.80
2019-03-10T05:56:00.664Z,78.90
2019-03-10T05:58:30.422Z,76.90
2019-03-10T06:01:00.190Z,76.40
2019-03-10T06:03:29.943Z,77.80
2019-03-10T06:05:59.645Z,76.40
2019-03-10T06:08:29.367Z,74.70
2019-03-10T06:10:59.075Z,75.60
2019-03-10T06:13:28.786Z,74.40
2019-03-10T06:15:58.817Z,74.00
2019-03-10T06:18:28.592Z,72.70
2019-03-10T06:20:58.319Z,72.30
2019-03-10T06:23:28.240Z,72.80
2019-03-10T06:25:58.094Z,74.50
2019-03-10T06:28:28.142Z,72.20
2019-03-10T06:30:58.353Z,73.40
2019-03-10T06:33:28.207Z,71.50
2019-03-10T06:35:58.061Z,68.70
2019-03-10T06:38:27.954Z,65.40
2019-03-10T06:40:59.521Z,65.10
2019-03-10T06:43:29.509Z,64.00
2019-03-10T06:45:59.440Z,60.60
2019-03-10T06:48:29.078Z,58.70
2019-03-10T06:50:58.839Z,60.00
2019-03-10T06:53:28.552Z,58.40
2019-03-10T06:55:58.292Z,58.20
2019-03-10T06:58:27.996Z,57.10
2019-03-10T07:00:57.705Z,57.40
2019-03-10T07:03:27.419Z,56.60
2019-03-10T07:05:57.340Z,54.60
2019-03-10T07:08:27.168Z,54.90
2019-03-10T07:10:56.888Z,51.20
2019-03-10T07:13:26.582Z,49.00
2019-03-10T07:15:56.359Z,45.50
2019-03-10T07:18:26.032Z,43.10
2019-03-10T07:20:58.326Z,39.40
2019-03-10T07:23:28.022Z,36.10
2019-03-10T07:26:07.591Z,35.00
2019-03-10T07:28:52.596Z,31.60
2019-03-10T07:31:40.073Z,32.50
2019-03-10T07:34:25.278Z,31.00
2019-03-10T07:37:12.316Z,31.30
2019-03-10T07:39:59.613Z,31.40
2019-03-10T07:42:51.014Z,34.40
2019-03-10T07:45:46.376Z,34.50
2019-03-10T07:48:24.300Z,37.90
2019-03-10T07:51:11.821Z,39.20
2019-03-10T07:53:52.010Z,39.60
2019-03-10T07:56:40.681Z,42.90
2019-03-10T07:59:35.358Z,41.50
2019-03-10T08:02:29.787Z,43.60
2019-03-10T08:05:10.117Z,38.50
2019-03-10T08:07:58.751Z,35.80
2019-03-10T08:10:45.136Z,33.30
2019-03-10T08:13:33.760Z,30.60
2019-03-10T08:16:15.737Z,31.20
2019-03-10T08:19:10.456Z,30.90
2019-03-10T08:22:05.134Z,31.70
2019-03-10T08:24:56.920Z,28.30
2019-03-10T08:27:48.452Z,27.20
2019-03-10T08:30:35.766Z,26.20
2019-03-10T08:33:23.031Z,27.00
2019-03-10T08:36:17.614Z,28.20
2019-03-10T08:39:07.580Z,28.90
2019-03-10T08:41:56.178Z,29.50
2019-03-10T08:44:36.040Z,30.30
2019-03-10T08:47:21.993Z,29.60
2019-03-10T08:50:16.895Z,27.90
2019-03-10T08:52:51.786Z,26.90
2019-03-10T08:55:43.420Z,28.00
2019-03-10T08:58:28.372Z,30.60
2019-03-10T09:01:15.512Z,29.60
2019-03-10T09:04:10.059Z,29.70
2019-03-10T09:07:10.585Z,30.70
2019-03-10T09:10:14.607Z,28.50
2019-03-10T09:13:01.852Z,27.20
2019-03-10T09:15:41.375Z,26.20
2019-03-10T09:18:33.058Z,25.60
2019-03-10T09:21:20.640Z,26.70
2019-03-10T09:24:12.333Z,28.10
2019-03-10T09:26:49.768Z,27.50
2019-03-10T09:29:41.555Z,29.70
2019-03-10T09:32:37.014Z,30.20
2019-03-10T09:35:11.639Z,31.80
2019-03-10T09:37:57.191Z,30.60
2019-03-10T09:40:46.150Z,30.50
2019-03-10T09:43:22.831Z,30.30
2019-03-10T09:46:11.655Z,30.60
2019-03-10T09:49:06.477Z,31.60
2019-03-10T09:52:06.539Z,30.70
2019-03-10T09:55:01.791Z,30.60
2019-03-10T09:57:40.150Z,32.30
2019-03-10T10:00:16.999Z,31.40
2019-03-10T10:03:02.546Z,31.50
2019-03-10T10:05:57.183Z,33.10
2019-03-10T10:08:46.535Z,31.70
2019-03-10T10:11:27.753Z,31.60
2019-03-10T10:14:19.629Z,30.00
2019-03-10T10:17:23.895Z,32.60
2019-03-10T10:20:15.715Z,30.40
2019-03-10T10:23:04.400Z,30.70
2019-03-10T10:25:42.710Z,31.10
2019-03-10T10:28:32.307Z,31.50
2019-03-10T10:31:29.819Z,31.60
2019-03-10T10:34:18.502Z,34.20
2019-03-10T10:37:07.306Z,36.30
2019-03-10T10:39:58.687Z,39.50
2019-03-10T10:42:47.320Z,36.60
2019-03-10T10:45:35.965Z,36.90
2019-03-10T10:48:21.957Z,36.10
2019-03-10T10:51:16.425Z,34.80
2019-03-10T10:53:55.039Z,34.30
2019-03-10T10:56:43.679Z,34.00
2019-03-10T10:59:32.306Z,33.70
2019-03-10T11:02:10.934Z,34.60
2019-03-10T11:05:08.974Z,34.00
2019-03-10T11:08:03.855Z,34.80
2019-03-10T11:11:01.307Z,36.60
2019-03-10T11:14:07.617Z,35.70
2019-03-10T11:16:55.027Z,38.40
2019-03-10T11:19:46.547Z,38.80
2019-03-10T11:22:34.753Z,38.00
2019-03-10T11:25:25.153Z,38.70
2019-03-10T11:28:28.995Z,37.40
2019-03-10T11:31:27.498Z,38.30
2019-03-10T11:34:19.086Z,41.10
2019-03-10T11:37:06.722Z,44.20
2019-03-10T11:39:46.125Z,45.40
2019-03-10T11:42:44.330Z,50.00
2019-03-10T11:45:22.280Z,45.70
2019-03-10T11:47:59.355Z,46.50
2019-03-10T11:50:38.681Z,48.50
2019-03-10T11:53:26.695Z,72.80
2019-03-10T11:56:33.667Z,55.00
2019-03-10T11:59:10.175Z,53.80
2019-03-10T12:01:58.776Z,55.30
2019-03-10T12:04:47.662Z,53.00
2019-03-10T12:07:39.316Z,54.00
2019-03-10T12:10:09.989Z,53.20
2019-03-10T12:12:39.718Z,61.50
2019-03-10T12:15:10.134Z,66.10
2019-03-10T12:17:39.963Z,65.00
2019-03-10T12:20:13.722Z,66.00
2019-03-10T12:22:44.410Z,69.40
2019-03-10T12:25:14.798Z,78.00
2019-03-10T12:27:47.740Z,75.30
2019-03-10T12:30:18.102Z,90.10
2019-03-10T12:32:48.915Z,77.90
2019-03-10T12:35:18.727Z,90.80
2019-03-10T12:37:48.407Z,91.30
2019-03-10T12:40:18.370Z,91.60
2019-03-10T12:42:48.186Z,99.90
2019-03-10T12:45:18.166Z,98.50
2019-03-10T12:47:47.917Z,99.90
2019-03-10T12:50:18.973Z,99.90
2019-03-10T12:52:48.870Z,99.90
2019-03-10T12:55:18.723Z,99.90
2019-03-10T12:57:48.631Z,99.90
2019-03-10T13:00:22.777Z,99.90
2019-03-10T13:02:52.456Z,99.90
2019-03-10T13:05:22.273Z,99.90
2019-03-10T13:07:51.931Z,99.90
2019-03-10T13:10:21.919Z,99.90
2019-03-10T13:12:51.730Z,99.90
2019-03-10T13:15:21.440Z,99.90
2019-03-10T13:17:51.134Z,99.90
2019-03-10T13:20:28.141Z,99.90
2019-03-10T13:22:52.185Z,99.90
2019-03-10T13:25:21.929Z,99.90
2019-03-10T13:27:51.654Z,99.90
2019-03-10T13:30:21.395Z,99.90
2019-03-10T13:32:51.139Z,99.90
2019-03-10T13:35:20.874Z,99.90
2019-03-10T13:37:50.592Z,99.90
2019-03-10T13:40:20.309Z,99.90
2019-03-10T13:42:50.048Z,99.90
2019-03-10T13:45:19.936Z,99.90
2019-03-10T13:47:49.688Z,99.90
2019-03-10T13:50:22.417Z,99.90
2019-03-10T13:52:52.105Z,99.90
2019-03-10T13:55:21.961Z,99.90
2019-03-10T13:57:53.443Z,99.90
2019-03-10T14:00:24.266Z,99.90
2019-03-10T14:02:53.943Z,99.90
2019-03-10T14:05:23.780Z,99.90
2019-03-10T14:07:56.016Z,99.90
2019-03-10T14:10:25.844Z,99.90
2019-03-10T14:12:55.545Z,99.90
2019-03-10T14:15:25.332Z,99.90
2019-03-10T14:17:55.110Z,99.90
2019-03-10T14:20:24.903Z,99.90
2019-03-10T14:22:54.623Z,99.90
2019-03-10T14:25:24.343Z,99.90
2019-03-10T14:27:54.024Z,99.90
2019-03-10T14:30:23.994Z,99.90
2019-03-10T14:32:53.655Z,99.90
2019-03-10T14:35:23.364Z,99.90
2019-03-10T14:37:53.081Z,99.90
2019-03-10T14:40:22.905Z,99.90
2019-03-10T14:42:52.667Z,99.90
2019-03-10T14:45:22.378Z,99.90
2019-03-10T14:47:52.073Z,99.90
2019-03-10T14:50:21.878Z,99.90
2019-03-10T14:52:51.665Z,99.90
2019-03-10T14:55:21.441Z,99.90
2019-03-10T14:57:51.222Z,99.90
2019-03-10T15:00:22.000Z,99.90
2019-03-10T15:02:51.817Z,99.90
2019-03-10T15:05:21.521Z,99.90
2019-03-10T15:07:51.717Z,99.90
2019-03-10T15:10:24.797Z,99.90
2019-03-10T15:12:54.687Z,99.90
2019-03-10T15:15:24.386Z,99.90
2019-03-10T15:17:54.271Z,99.90
2019-03-10T15:20:24.634Z,99.90
2019-03-10T15:22:54.513Z,99.90
2019-03-10T15:25:25.308Z,99.90
2019-03-10T15:27:55.333Z,99.90
2019-03-10T15:30:25.160Z,99.90
2019-03-10T15:32:55.094Z,99.90
2019-03-10T15:35:24.852Z,99.90
2019-03-10T15:37:55.046Z,99.90
2019-03-10T15:40:25.153Z,99.90
2019-03-10T15:42:54.981Z,99.90
2019-03-10T15:45:24.703Z,99.90
2019-03-10T15:47:54.479Z,99.90
2019-03-10T15:50:24.959Z,99.90
2019-03-10T15:52:54.703Z,99.90
2019-03-10T15:55:24.416Z,99.90
2019-03-10T15:57:54.147Z,99.90
2019-03-10T16:00:24.158Z,99.90
2019-03-10T16:02:53.948Z,99.90
2019-03-10T16:05:23.770Z,99.90
2019-03-10T16:07:53.831Z,99.90
2019-03-10T16:10:23.750Z,99.90
2019-03-10T16:12:53.689Z,99.90
2019-03-10T16:15:23.570Z,99.90
2019-03-10T16:17:53.473Z,99.90
2019-03-10T16:20:23.176Z,99.90
2019-03-10T16:22:55.231Z,99.90
2019-03-10T16:25:24.771Z,99.90
2019-03-10T16:27:54.591Z,99.90
2019-03-10T16:30:24.379Z,99.90
2019-03-10T16:32:54.143Z,99.90
2019-03-10T16:35:23.889Z,99.90
2019-03-10T16:37:53.715Z,99.90
2019-03-10T16:40:23.727Z,99.90
2019-03-10T16:42:53.520Z,99.90
2019-03-10T16:45:23.298Z,99.90
2019-03-10T16:47:53.091Z,99.90
2019-03-10T16:50:22.910Z,99.90
2019-03-10T16:52:52.715Z,99.90
2019-03-10T16:55:22.697Z,99.90
2019-03-10T16:57:55.626Z,99.90
2019-03-10T17:00:25.322Z,99.90
2019-03-10T17:02:57.718Z,99.90
2019-03-10T17:05:30.462Z,99.90
2019-03-10T17:08:00.187Z,99.90
2019-03-10T17:10:29.905Z,99.90
2019-03-10T17:12:59.670Z,99.90
2019-03-10T17:15:29.663Z,99.90
2019-03-10T17:17:59.595Z,99.90
2019-03-10T17:20:29.339Z,99.90
2019-03-10T17:22:59.080Z,99.90
2019-03-10T17:25:28.771Z,99.90
2019-03-10T17:27:58.625Z,99.90
2019-03-10T17:30:28.591Z,99.90
2019-03-10T17:32:58.595Z,99.90
2019-03-10T17:35:28.447Z,99.90
2019-03-10T17:38:02.170Z,99.90
2019-03-10T17:40:33.838Z,99.90
2019-03-10T17:43:07.979Z,99.90
2019-03-10T17:45:37.884Z,99.90
2019-03-10T17:48:09.070Z,99.90
2019-03-10T17:50:40.168Z,99.90
2019-03-10T17:53:10.095Z,99.90
2019-03-10T17:55:40.199Z,99.90
2019-03-10T17:58:11.064Z,99.90
2019-03-10T18:00:40.887Z,99.90
2019-03-10T18:03:10.803Z,99.90
2019-03-10T18:05:40.694Z,99.90
2019-03-10T18:08:10.567Z,99.90
2019-03-10T18:10:40.271Z,99.90
2019-03-10T18:13:10.050Z,99.90
2019-03-10T18:15:40.742Z,99.90
2019-03-10T18:18:10.613Z,99.90
2019-03-10T18:20:43.486Z,99.90
2019-03-10T18:23:13.317Z,99.90
2019-03-10T18:25:42.977Z,99.90
2019-03-10T18:28:12.852Z,99.90
2019-03-10T18:30:42.605Z,99.90
2019-03-10T18:33:12.372Z,99.90
2019-03-10T18:35:42.130Z,99.90
2019-03-10T18:38:11.972Z,99.90
2019-03-10T18:40:44.752Z,99.90
2019-03-10T18:43:14.530Z,99.90
2019-03-10T18:45:44.295Z,99.90
2019-03-10T18:48:14.054Z,99.90
2019-03-10T18:50:43.985Z,99.90
2019-03-10T18:53:13.708Z,99.90
2019-03-10T18:55:43.531Z,99.90
2019-03-10T18:58:13.245Z,99.90
2019-03-10T19:00:43.250Z,99.90
2019-03-10T19:03:13.062Z,99.90
2019-03-10T19:05:43.433Z,99.90
2019-03-10T19:08:13.303Z,99.90
2019-03-10T19:10:43.077Z,99.90
2019-03-10T19:13:12.777Z,99.90
2019-03-10T19:15:42.648Z,99.90
2019-03-10T19:18:12.477Z,99.90
2019-03-10T19:20:42.519Z,99.90
2019-03-10T19:23:16.657Z,99.90
2019-03-10T19:25:46.774Z,99.90
2019-03-10T19:28:16.845Z,99.90
2019-03-10T19:30:48.870Z,99.90
2019-03-10T19:33:18.766Z,99.90
2019-03-10T19:35:49.337Z,99.90
2019-03-10T19:38:20.327Z,99.90
2019-03-10T19:40:52.588Z,99.90
2019-03-10T19:43:22.570Z,99.90
2019-03-10T19:45:52.568Z,99.90
2019-03-10T19:48:22.578Z,99.90
2019-03-10T19:50:54.806Z,99.90
2019-03-10T19:53:25.871Z,99.90
2019-03-10T19:55:55.711Z,99.90
2019-03-10T19:58:25.606Z,99.90
2019-03-10T20:00:56.177Z,99.90
2019-03-10T20:03:26.479Z,99.90
2019-03-10T20:05:56.689Z,99.90
2019-03-10T20:08:26.385Z,99.90
2019-03-10T20:10:56.173Z,99.90
2019-03-10T20:13:25.879Z,99.90
2019-03-10T20:15:56.002Z,99.90
2019-03-10T20:18:26.013Z,99.90
2019-03-10T20:20:55.968Z,99.90
2019-03-10T20:23:25.842Z,99.90
2019-03-10T20:25:55.640Z,99.90
2019-03-10T20:28:25.676Z,99.90
2019-03-10T20:30:55.692Z,99.90
2019-03-10T20:33:25.495Z,99.90
2019-03-10T20:35:55.334Z,99.90
2019-03-10T20:38:25.149Z,99.90
2019-03-10T20:40:55.229Z,99.90
2019-03-10T20:43:27.760Z,99.90
2019-03-10T20:45:57.662Z,99.90
2019-03-10T20:48:27.383Z,97.40
2019-03-10T20:50:57.930Z,94.70
2019-03-10T20:53:27.780Z,91.50
2019-03-10T20:55:58.130Z,86.40
2019-03-10T20:58:27.830Z,84.70
2019-03-10T21:00:57.584Z,77.80
2019-03-10T21:03:27.378Z,79.50
2019-03-10T21:05:57.187Z,75.10
2019-03-10T21:08:26.918Z,68.50
2019-03-10T21:10:56.675Z,62.80
2019-03-10T21:13:29.494Z,65.90
2019-03-10T21:15:59.316Z,66.70
2019-03-10T21:18:29.103Z,60.20
2019-03-10T21:20:58.899Z,62.90
2019-03-10T21:23:28.735Z,62.10
2019-03-10T21:25:58.557Z,59.80
2019-03-10T21:28:28.281Z,60.30
2019-03-10T21:30:58.259Z,60.10
2019-03-10T21:33:28.106Z,60.20
2019-03-10T21:35:57.922Z,59.70
2019-03-10T21:38:27.688Z,58.10
2019-03-10T21:40:57.511Z,58.30
2019-03-10T21:43:27.220Z,57.30
2019-03-10T21:45:56.934Z,57.90
2019-03-10T21:48:26.594Z,57.30
2019-03-10T21:50:56.351Z,56.50
2019-03-10T21:53:26.112Z,55.10
2019-03-10T21:55:55.887Z,56.10
2019-03-10T21:58:25.612Z,55.10
2019-03-10T22:00:55.452Z,54.80
2019-03-10T22:03:25.155Z,55.90
2019-03-10T22:05:55.753Z,55.20
2019-03-10T22:08:28.206Z,55.10
2019-03-10T22:10:58.138Z,53.40
2019-03-10T22:13:31.359Z,52.00
2019-03-10T22:16:01.159Z,51.50
2019-03-10T22:18:30.931Z,51.20
2019-03-10T22:21:01.503Z,51.70
2019-03-10T22:23:32.936Z,52.00
2019-03-10T22:26:02.893Z,51.10
2019-03-10T22:28:32.750Z,50.00
2019-03-10T22:31:02.493Z,52.10
2019-03-10T22:33:32.238Z,51.10
2019-03-10T22:36:03.111Z,51.60
2019-03-10T22:38:32.827Z,52.40
2019-03-10T22:41:03.151Z,52.50
2019-03-10T22:43:33.054Z,53.50
2019-03-10T22:46:02.829Z,52.30
2019-03-10T22:48:32.571Z,52.70
2019-03-10T22:51:02.369Z,50.70
2019-03-10T22:53:32.211Z,51.50
2019-03-10T22:56:03.886Z,50.80
2019-03-10T22:58:33.679Z,54.10
2019-03-10T23:01:03.662Z,52.50
2019-03-10T23:03:34.459Z,52.20
2019-03-10T23:06:04.161Z,53.30
2019-03-10T23:08:33.823Z,55.10
2019-03-10T23:11:03.710Z,54.50
2019-03-10T23:13:33.438Z,51.40
2019-03-10T23:16:03.218Z,51.60
2019-03-10T23:18:33.069Z,52.30
2019-03-10T23:21:02.774Z,53.80
2019-03-10T23:23:32.490Z,56.20
2019-03-10T23:26:02.193Z,59.90
2019-03-10T23:28:31.887Z,61.90
2019-03-10T23:31:01.551Z,65.40
2019-03-10T23:33:31.294Z,71.20
2019-03-10T23:36:01.042Z,75.30
2019-03-10T23:38:30.767Z,76.70
2019-03-10T23:41:00.481Z,92.00
2019-03-10T23:43:30.185Z,97.70
2019-03-10T23:46:00.074Z,99.90
2019-03-10T23:48:29.812Z,99.90
2019-03-10T23:50:59.606Z,99.90
2019-03-10T23:53:29.408Z,99.90
2019-03-10T23:55:59.167Z,99.90
2019-03-10T23:58:28.932Z,99.90
